Glory Atlantic — LADA8 — position and weather

sailwx.info

Track history (hours):
 
Tides and Currents Weather Stations Pressure Air Temp Water Temp Dewpoint Dewpoint Depression Visibility Wind Speed Wind Dir Waves Ship Positions

Glory Atlantic

Last reported at 2017-Nov-19 09:01 UTC. Time now 2017-Nov-21 14:03 UTC.
Position S 38°59' E 147°08'.

Length 145 m; draft 6.9 m.

Type: Cargo ship. MMSI: 257223000.

Date/timePositionNaut miles runAvg speedWind from/ knotsBaromVisibWave heightAir tempDewpointWater temp
2017-Nov-19 09:01S 38°59' E 147°08'3611.2
2017-Nov-19 05:45S 38°47' E 147°52'311.1
2017-Nov-19 05:30S 38°47' E 147°55'611.2
2017-Nov-19 04:59S 38°45' E 148°03'611.4
2017-Nov-19 04:30S 38°43' E 148°09'811.7
2017-Nov-19 03:49S 38°40' E 148°19'511.8
2017-Nov-19 03:24S 38°38' E 148°24'612.0
2017-Nov-19 02:52S 38°35' E 148°32'912.1
2017-Nov-19 02:09S 38°31' E 148°41'512.0
2017-Nov-19 01:47S 38°29' E 148°47'411.7
2017-Nov-19 01:24S 38°27' E 148°51'511.8
2017-Nov-19 01:00S 38°25' E 148°57'612.0
2017-Nov-19 00:30S 38°22' E 149°03'611.7
2017-Nov-19 00:00S 38°19' E 149°10'611.9
2017-Nov-18 23:30S 38°16' E 149°17'3812.1
2017-Nov-18 20:21S 37°56' E 149°58'255 5.3
2017-Nov-16 19:58S 33°50' E 151°23'4 6.5
2017-Nov-16 19:25S 33°50' E 151°27'2 3.3
2017-Nov-16 18:57S 33°51' E 151°28'0 0.5
2017-Nov-16 18:30S 33°52' E 151°28'0 0.9
2017-Nov-16 18:00S 33°52' E 151°28'1 1.0
2017-Nov-16 17:30S 33°53' E 151°28'0 0.8
2017-Nov-16 17:00S 33°53' E 151°28'1 2.1
2017-Nov-16 16:30S 33°54' E 151°27'1 1.8
2017-Nov-16 15:57S 33°55' E 151°27'1 0.8
2017-Nov-16 14:10S 33°56' E 151°26'2 0.4
2017-Nov-16 07:46S 33°54' E 151°28'1 2.9
2017-Nov-16 07:25S 33°53' E 151°28'2 3.0
2017-Nov-16 06:51S 33°52' E 151°29'1 3.0
2017-Nov-16 06:30S 33°51' E 151°30'2 3.1
2017-Nov-16 05:55S 33°49' E 151°30'1 3.0
2017-Nov-16 05:26S 33°48' E 151°31'1 0.6
2017-Nov-16 03:42S 33°47' E 151°30'0 1.2
2017-Nov-16 03:30S 33°47' E 151°30'1 1.6
2017-Nov-16 03:00S 33°47' E 151°29'1 1.2
2017-Nov-16 02:14S 33°48' E 151°28'0 1.2
2017-Nov-16 02:00S 33°48' E 151°28'1 1.3
2017-Nov-16 01:30S 33°48' E 151°27'1 1.5
2017-Nov-16 01:00S 33°49' E 151°26'5012.1
2017-Nov-15 20:54S 33°17' E 152°12'512.6
2017-Nov-15 20:30S 33°14' E 152°16'612.5
2017-Nov-15 20:00S 33°09' E 152°22'612.5
2017-Nov-15 19:30S 33°05' E 152°28'612.7
2017-Nov-15 19:00S 33°01' E 152°33'612.9
2017-Nov-15 18:30S 32°56' E 152°38'712.7
2017-Nov-15 17:55S 32°50' E 152°43'912.4
2017-Nov-15 17:11S 32°43' E 152°51'212.1
2017-Nov-15 16:59S 32°41' E 152°52'611.8
2017-Nov-15 16:30S 32°36' E 152°54'23712.4
2017-Nov-14 21:20S 28°44' E 153°52'612.6
2017-Nov-14 20:52S 28°39' E 153°53'512.6
2017-Nov-14 20:30S 28°34' E 153°53'612.4
2017-Nov-14 19:59S 28°28' E 153°53'612.4
2017-Nov-14 19:30S 28°21' E 153°53'612.3
2017-Nov-14 19:00S 28°15' E 153°54'612.5
2017-Nov-14 18:30S 28°09' E 153°54'612.5
2017-Nov-14 18:00S 28°03' E 153°54'612.6
2017-Nov-14 17:30S 27°57' E 153°54'612.5
2017-Nov-14 17:00S 27°50' E 153°53'612.5
2017-Nov-14 16:30S 27°44' E 153°53'712.9
2017-Nov-14 16:00S 27°38' E 153°52'2112.7
2017-Nov-14 14:21S 27°17' E 153°48'412.6
2017-Nov-14 14:00S 27°13' E 153°47'612.3
2017-Nov-14 13:29S 27°06' E 153°46'711.9
2017-Nov-14 12:53S 26°59' E 153°45'  
2017-Nov-10 16:41S 27°02' E 153°47'7 9.9
2017-Nov-10 15:56S 27°10' E 153°47'2110.1
2017-Nov-10 13:51S 27°31' E 153°49'410.3
2017-Nov-10 13:30S 27°34' E 153°49'510.3
2017-Nov-10 13:00S 27°39' E 153°50'510.6
2017-Nov-10 12:31S 27°45' E 153°51'510.7
2017-Nov-10 12:00S 27°50' E 153°51'510.8
2017-Nov-10 11:30S 27°55' E 153°52'610.8
2017-Nov-10 10:59S 28°01' E 153°52'511.0
2017-Nov-10 10:30S 28°06' E 153°53'511.2
2017-Nov-10 10:00S 28°12' E 153°53'510.7
2017-Nov-10 09:30S 28°17' E 153°53'610.7
2017-Nov-10 08:59S 28°23' E 153°53'  
Track history (hours):
 
Tides and Currents Weather Stations Pressure Air Temp Water Temp Dewpoint Dewpoint Depression Visibility Wind Speed Wind Dir Waves Ship Positions

Glory Atlantic

Last reported at 2017-Nov-19 09:01 UTC. Time now 2017-Nov-21 14:03 UTC.
Position S 38°59' E 147°08'.

Length 145 m; draft 6.9 m.

Type: Cargo ship. MMSI: 257223000.

Date/timePositionNaut miles runAvg speedWind from/ knotsBaromVisibWave heightAir tempDewpointWater temp
2017-Nov-19 09:01S 38°59' E 147°08'3611.2
2017-Nov-19 05:45S 38°47' E 147°52'311.1
2017-Nov-19 05:30S 38°47' E 147°55'611.2
2017-Nov-19 04:59S 38°45' E 148°03'611.4
2017-Nov-19 04:30S 38°43' E 148°09'811.7
2017-Nov-19 03:49S 38°40' E 148°19'511.8
2017-Nov-19 03:24S 38°38' E 148°24'612.0
2017-Nov-19 02:52S 38°35' E 148°32'912.1
2017-Nov-19 02:09S 38°31' E 148°41'512.0
2017-Nov-19 01:47S 38°29' E 148°47'411.7
2017-Nov-19 01:24S 38°27' E 148°51'511.8
2017-Nov-19 01:00S 38°25' E 148°57'612.0
2017-Nov-19 00:30S 38°22' E 149°03'611.7
2017-Nov-19 00:00S 38°19' E 149°10'611.9
2017-Nov-18 23:30S 38°16' E 149°17'3812.1
2017-Nov-18 20:21S 37°56' E 149°58'255 5.3
2017-Nov-16 19:58S 33°50' E 151°23'4 6.5
2017-Nov-16 19:25S 33°50' E 151°27'2 3.3
2017-Nov-16 18:57S 33°51' E 151°28'0 0.5
2017-Nov-16 18:30S 33°52' E 151°28'0 0.9
2017-Nov-16 18:00S 33°52' E 151°28'1 1.0
2017-Nov-16 17:30S 33°53' E 151°28'0 0.8
2017-Nov-16 17:00S 33°53' E 151°28'1 2.1
2017-Nov-16 16:30S 33°54' E 151°27'1 1.8
2017-Nov-16 15:57S 33°55' E 151°27'1 0.8
2017-Nov-16 14:10S 33°56' E 151°26'2 0.4
2017-Nov-16 07:46S 33°54' E 151°28'1 2.9
2017-Nov-16 07:25S 33°53' E 151°28'2 3.0
2017-Nov-16 06:51S 33°52' E 151°29'1 3.0
2017-Nov-16 06:30S 33°51' E 151°30'2 3.1
2017-Nov-16 05:55S 33°49' E 151°30'1 3.0
2017-Nov-16 05:26S 33°48' E 151°31'1 0.6
2017-Nov-16 03:42S 33°47' E 151°30'0 1.2
2017-Nov-16 03:30S 33°47' E 151°30'1 1.6
2017-Nov-16 03:00S 33°47' E 151°29'1 1.2
2017-Nov-16 02:14S 33°48' E 151°28'0 1.2
2017-Nov-16 02:00S 33°48' E 151°28'1 1.3
2017-Nov-16 01:30S 33°48' E 151°27'1 1.5
2017-Nov-16 01:00S 33°49' E 151°26'5012.1
2017-Nov-15 20:54S 33°17' E 152°12'512.6
2017-Nov-15 20:30S 33°14' E 152°16'612.5
2017-Nov-15 20:00S 33°09' E 152°22'612.5
2017-Nov-15 19:30S 33°05' E 152°28'612.7
2017-Nov-15 19:00S 33°01' E 152°33'612.9
2017-Nov-15 18:30S 32°56' E 152°38'712.7
2017-Nov-15 17:55S 32°50' E 152°43'912.4
2017-Nov-15 17:11S 32°43' E 152°51'212.1
2017-Nov-15 16:59S 32°41' E 152°52'611.8
2017-Nov-15 16:30S 32°36' E 152°54'23712.4
2017-Nov-14 21:20S 28°44' E 153°52'612.6
2017-Nov-14 20:52S 28°39' E 153°53'512.6
2017-Nov-14 20:30S 28°34' E 153°53'612.4
2017-Nov-14 19:59S 28°28' E 153°53'612.4
2017-Nov-14 19:30S 28°21' E 153°53'612.3
2017-Nov-14 19:00S 28°15' E 153°54'612.5
2017-Nov-14 18:30S 28°09' E 153°54'612.5
2017-Nov-14 18:00S 28°03' E 153°54'612.6
2017-Nov-14 17:30S 27°57' E 153°54'612.5
2017-Nov-14 17:00S 27°50' E 153°53'612.5
2017-Nov-14 16:30S 27°44' E 153°53'712.9
2017-Nov-14 16:00S 27°38' E 153°52'2112.7
2017-Nov-14 14:21S 27°17' E 153°48'412.6
2017-Nov-14 14:00S 27°13' E 153°47'612.3
2017-Nov-14 13:29S 27°06' E 153°46'711.9
2017-Nov-14 12:53S 26°59' E 153°45'  
2017-Nov-10 16:41S 27°02' E 153°47'7 9.9
2017-Nov-10 15:56S 27°10' E 153°47'2110.1
2017-Nov-10 13:51S 27°31' E 153°49'410.3
2017-Nov-10 13:30S 27°34' E 153°49'510.3
2017-Nov-10 13:00S 27°39' E 153°50'510.6
2017-Nov-10 12:31S 27°45' E 153°51'510.7
2017-Nov-10 12:00S 27°50' E 153°51'510.8
2017-Nov-10 11:30S 27°55' E 153°52'610.8
2017-Nov-10 10:59S 28°01' E 153°52'511.0
2017-Nov-10 10:30S 28°06' E 153°53'511.2
2017-Nov-10 10:00S 28°12' E 153°53'510.7
2017-Nov-10 09:30S 28°17' E 153°53'610.7
2017-Nov-10 08:59S 28°23' E 153°53'  

Dump ship's entire track history